Time;durP1;ratioP1;P1;durP2;ratioP2;P2;SDS_P1;SDS_P2;PMS_P1;PMS_P2;Temp;Humidity;BMP_temperature;BMP_pressure;BME280_temperature;BME280_humidity;BME280_pressure;Samples;Min_cycle;Max_cycle;Signal;HPM_P1;HPM_P2
2023/04/26 00:01:13;;;;;;;1.70;1.60;;;;;;;7.64;92.93;95342.97;4351999;32;20192;-55
2023/04/26 00:03:40;;;;;;;1.33;1.27;;;;;;;7.65;91.76;95352.47;4369849;32;20359;-55
2023/04/26 00:06:13;;;;;;;1.97;1.80;;;;;;;7.43;92.54;95348.38;4357378;32;20356;-55
2023/04/26 00:08:41;;;;;;;1.20;1.20;;;;;;;7.50;92.80;95348.84;4333066;32;20380;-54
2023/04/26 00:11:08;;;;;;;1.70;1.60;;;;;;;7.53;93.28;95350.94;4357834;32;20282;-55
2023/04/26 00:13:38;;;;;;;1.93;1.83;;;;;;;7.62;93.22;95339.81;4342725;32;20280;-55
2023/04/26 00:16:05;;;;;;;1.67;1.67;;;;;;;7.62;93.20;95342.47;4328951;32;20285;-55
2023/04/26 00:18:33;;;;;;;1.90;1.80;;;;;;;7.53;93.56;95337.75;4366057;32;20276;-53
2023/04/26 00:20:59;;;;;;;1.50;1.50;;;;;;;7.84;93.02;95330.44;4361922;32;20285;-56
2023/04/26 00:23:27;;;;;;;2.10;2.00;;;;;;;7.73;92.77;95331.53;4373904;32;20303;-54
2023/04/26 00:26:05;;;;;;;3.40;2.30;;;;;;;7.55;93.03;95338.25;4362297;32;20201;-54
2023/04/26 00:28:31;;;;;;;2.00;1.90;;;;;;;7.70;92.95;95341.88;4379622;32;20268;-54
2023/04/26 00:30:57;;;;;;;1.97;1.87;;;;;;;7.79;92.57;95340.22;4369465;32;20406;-53
2023/04/26 00:33:23;;;;;;;2.40;2.30;;;;;;;7.80;92.71;95339.16;4353018;32;20181;-55
2023/04/26 00:35:51;;;;;;;2.13;1.97;;;;;;;7.73;93.40;95336.81;4373328;32;20276;-53
2023/04/26 00:38:17;;;;;;;2.73;2.53;;;;;;;7.65;93.93;95336.63;4356636;32;20287;-55
2023/04/26 00:40:46;;;;;;;2.00;1.90;;;;;;;7.71;92.94;95343.44;4386552;32;20268;-55
2023/04/26 00:43:12;;;;;;;2.87;2.20;;;;;;;7.56;92.88;95350.41;4355837;32;20372;-56
2023/04/26 00:45:39;;;;;;;1.83;1.73;;;;;;;7.62;92.87;95350.38;4352921;32;20398;-55
2023/04/26 00:48:06;;;;;;;1.70;1.70;;;;;;;7.68;93.14;95339.53;4350569;32;20331;-55
2023/04/26 00:50:31;;;;;;;2.87;2.73;;;;;;;7.73;93.40;95341.31;4345202;32;20307;-55
2023/04/26 00:52:58;;;;;;;1.20;1.20;;;;;;;7.66;93.10;95335.56;4320575;32;20309;-54
2023/04/26 00:55:26;;;;;;;1.87;1.70;;;;;;;7.54;92.61;95336.69;4319548;32;20302;-56
2023/04/26 00:57:54;;;;;;;2.67;1.93;;;;;;;7.46;93.16;95342.56;4378450;32;20326;-56
2023/04/26 01:00:21;;;;;;;1.33;1.33;;;;;;;7.65;93.04;95340.06;4344070;32;20292;-56
2023/04/26 01:02:53;;;;;;;2.13;2.03;;;;;;;7.62;93.37;95337.97;4389199;32;20294;-55
2023/04/26 01:05:24;;;;;;;1.63;1.63;;;;;;;7.47;94.01;95344.13;4353349;32;20313;-60
2023/04/26 01:07:52;;;;;;;2.93;2.73;;;;;;;7.64;93.06;95342.97;4376266;32;20314;-54
2023/04/26 01:10:21;;;;;;;1.20;1.20;;;;;;;7.50;93.22;95348.84;4360513;32;20303;-55
2023/04/26 01:12:47;;;;;;;2.27;2.07;;;;;;;7.47;93.45;95356.53;4335150;32;20349;-54
2023/04/26 01:15:13;;;;;;;1.37;1.37;;;;;;;7.33;94.49;95345.78;4361889;32;20272;-55
2023/04/26 01:17:43;;;;;;;1.23;1.13;;;;;;;7.31;94.80;95347.91;4368238;32;20281;-53
2023/04/26 01:20:12;;;;;;;1.27;1.17;;;;;;;7.33;94.21;95353.69;4344504;32;20396;-52
2023/04/26 01:22:39;;;;;;;0.87;0.87;;;;;;;7.34;93.54;95349.22;4325757;32;20281;-56
2023/04/26 01:25:08;;;;;;;1.73;1.60;;;;;;;7.14;93.29;95350.09;4329927;32;20296;-55
2023/04/26 01:27:35;;;;;;;0.90;0.90;;;;;;;7.15;93.42;95354.31;4350166;32;20353;-56
2023/04/26 01:30:07;;;;;;;1.60;1.50;;;;;;;7.18;93.20;95351.13;4356895;32;20296;-56
2023/04/26 01:32:54;;;;;;;1.03;1.03;;;;;;;7.31;92.87;95355.03;4357698;32;20281;-56
2023/04/26 01:35:22;;;;;;;1.67;1.47;;;;;;;7.34;92.73;95351.84;4342617;32;20285;-56
2023/04/26 01:37:50;;;;;;;0.97;0.97;;;;;;;7.40;92.74;95354.19;4369067;32;20307;-60
2023/04/26 01:40:18;;;;;;;2.37;2.20;;;;;;;7.13;93.74;95354.56;4337652;32;20285;-56
2023/04/26 01:42:45;;;;;;;1.63;1.57;;;;;;;7.05;93.63;95357.78;4357829;32;20282;-54
2023/04/26 01:45:13;;;;;;;1.53;1.43;;;;;;;7.03;93.68;95353.84;4346634;32;20382;-53
2023/04/26 01:47:41;;;;;;;1.43;1.40;;;;;;;7.18;93.09;95357.19;4360913;32;20365;-54
2023/04/26 01:50:08;;;;;;;0.90;0.90;;;;;;;7.16;92.95;95358.53;4369066;32;20299;-55
2023/04/26 01:52:35;;;;;;;0.90;0.90;;;;;;;7.06;93.33;95363.84;4336978;32;20277;-56
2023/04/26 01:55:01;;;;;;;1.47;1.37;;;;;;;7.22;93.09;95362.72;4332088;32;20292;-56
2023/04/26 01:57:27;;;;;;;3.33;1.17;;;;;;;7.19;93.59;95358.78;4338210;32;20288;-56
2023/04/26 01:59:54;;;;;;;1.17;1.17;;;;;;;7.03;93.69;95359.13;4318022;32;20174;-57
2023/04/26 02:02:23;;;;;;;1.33;1.27;;;;;;;7.12;93.97;95370.66;4345905;32;20277;-54
2023/04/26 02:04:52;;;;;;;1.17;1.17;;;;;;;7.22;93.06;95368.00;4354248;32;20274;-60
2023/04/26 02:07:20;;;;;;;1.80;1.70;;;;;;;7.19;93.06;95369.34;4362745;32;20273;-56
2023/04/26 02:09:51;;;;;;;1.70;1.60;;;;;;;7.31;92.75;95376.91;4358253;32;20268;-55
2023/04/26 02:12:18;;;;;;;1.30;1.27;;;;;;;7.19;93.78;95379.88;4338437;32;20288;-53
2023/04/26 02:14:44;;;;;;;1.53;1.53;;;;;;;7.28;93.52;95379.31;4331692;32;20316;-55
2023/04/26 02:17:10;;;;;;;3.27;2.07;;;;;;;7.14;93.23;95373.84;4324444;32;20341;-54
2023/04/26 02:19:37;;;;;;;3.70;1.60;;;;;;;6.98;94.24;95372.31;4330830;32;20294;-55
2023/04/26 02:22:05;;;;;;;1.00;1.00;;;;;;;6.93;94.54;95377.59;4337575;32;20281;-57
2023/04/26 02:24:31;;;;;;;1.70;1.60;;;;;;;7.00;93.77;95365.72;4342670;32;20286;-55
2023/04/26 02:27:02;;;;;;;1.20;1.20;;;;;;;6.80;94.49;95366.56;4341203;32;20400;-53
2023/04/26 02:29:29;;;;;;;2.63;0.83;;;;;;;6.78;94.33;95355.50;4360075;32;20381;-55
2023/04/26 02:32:04;;;;;;;1.20;1.20;;;;;;;6.73;94.92;95360.78;4368809;32;20284;-54
2023/04/26 02:34:30;;;;;;;1.20;1.20;;;;;;;6.74;94.95;95359.72;4349256;32;20281;-56
2023/04/26 02:36:57;;;;;;;1.53;1.37;;;;;;;6.84;93.85;95359.72;4323869;32;20361;-55
2023/04/26 02:39:22;;;;;;;0.73;0.70;;;;;;;6.94;93.50;95350.97;4369194;32;20306;-52
2023/04/26 02:41:50;;;;;;;1.03;1.03;;;;;;;6.94;93.50;95356.22;4344633;32;20280;-54
2023/04/26 02:44:17;;;;;;;3.43;1.83;;;;;;;6.75;94.14;95363.94;4368203;32;20188;-56
2023/04/26 02:46:44;;;;;;;1.80;1.70;;;;;;;7.01;93.44;95363.88;4374138;32;20268;-53
2023/04/26 02:49:09;;;;;;;2.17;1.97;;;;;;;6.67;93.56;95361.03;4349126;32;20463;-54
2023/04/26 02:51:40;;;;;;;0.73;0.67;;;;;;;6.82;93.28;95359.19;4356938;32;20351;-54
2023/04/26 02:54:06;;;;;;;1.30;1.03;;;;;;;6.94;94.01;95363.34;4356220;32;20271;-54
2023/04/26 02:56:33;;;;;;;0.67;0.67;;;;;;;6.71;93.19;95365.53;4386487;32;20275;-54
2023/04/26 02:59:00;;;;;;;1.13;1.03;;;;;;;6.80;92.33;95360.50;4376152;32;20261;-57
2023/04/26 03:01:27;;;;;;;0.70;0.70;;;;;;;6.70;92.30;95356.03;4366209;32;20273;-54
2023/04/26 03:03:54;;;;;;;2.70;1.77;;;;;;;6.67;92.43;95353.94;4360018;32;20280;-51
2023/04/26 03:06:20;;;;;;;1.00;1.00;;;;;;;6.63;93.30;95360.03;4339390;32;20276;-56
2023/04/26 03:08:47;;;;;;;1.27;1.23;;;;;;;6.59;92.33;95359.75;4338893;32;20287;-53
2023/04/26 03:11:14;;;;;;;1.17;1.17;;;;;;;6.57;92.34;95367.16;4371027;32;20268;-53
2023/04/26 03:13:41;;;;;;;1.43;1.33;;;;;;;6.63;92.63;95360.81;4366285;32;20379;-54
2023/04/26 03:16:08;;;;;;;1.17;1.17;;;;;;;6.83;91.96;95365.25;4356846;32;20345;-55
2023/04/26 03:18:33;;;;;;;0.33;0.33;;;;;;;6.76;92.07;95370.78;4377796;32;20265;-52
2023/04/26 03:20:58;;;;;;;0.83;0.83;;;;;;;6.74;92.50;95364.19;4366034;32;20276;-53
2023/04/26 03:23:25;;;;;;;0.90;0.90;;;;;;;6.61;92.20;95367.41;4379626;32;20176;-54
2023/04/26 03:25:50;;;;;;;1.37;1.27;;;;;;;6.71;91.89;95370.78;4335396;32;20227;-55
2023/04/26 03:28:17;;;;;;;1.53;1.43;;;;;;;6.79;91.68;95369.47;4353649;32;20270;-55
2023/04/26 03:30:42;;;;;;;1.50;1.50;;;;;;;6.57;91.77;95369.78;4346982;32;20275;-54
2023/04/26 03:33:07;;;;;;;0.73;0.73;;;;;;;6.55;92.48;95372.69;4344535;32;20280;-54
2023/04/26 03:35:33;;;;;;;1.17;1.17;;;;;;;6.58;92.81;95374.00;4355708;32;20199;-57
2023/04/26 03:37:59;;;;;;;1.10;1.10;;;;;;;6.68;92.54;95373.97;4342318;32;20173;-54
2023/04/26 03:40:26;;;;;;;1.10;1.10;;;;;;;6.70;92.81;95378.97;4338026;32;20278;-54
2023/04/26 03:42:54;;;;;;;1.20;1.10;;;;;;;6.53;92.44;95371.34;4350404;32;20188;-53
2023/04/26 03:45:20;;;;;;;0.77;0.77;;;;;;;6.60;92.84;95368.47;4368555;32;20306;-57
2023/04/26 03:47:47;;;;;;;1.47;1.47;;;;;;;6.64;92.63;95370.31;4364406;32;20342;-54
2023/04/26 03:50:15;;;;;;;1.47;1.37;;;;;;;6.69;92.82;95375.53;4353155;32;20280;-54
2023/04/26 03:52:41;;;;;;;1.27;1.27;;;;;;;6.80;92.46;95371.84;4349142;32;20274;-55
2023/04/26 03:55:09;;;;;;;1.87;1.77;;;;;;;6.57;92.63;95371.62;4337673;32;20278;-54
2023/04/26 03:57:37;;;;;;;1.87;1.53;;;;;;;6.55;93.43;95371.88;4351428;32;20336;-52
2023/04/26 04:00:13;;;;;;;1.80;1.47;;;;;;;6.69;93.10;95375.53;4341969;32;20302;-54
2023/04/26 04:02:42;;;;;;;1.43;1.40;;;;;;;6.64;93.59;95380.84;4323254;32;20284;-52
2023/04/26 04:05:08;;;;;;;0.63;0.63;;;;;;;6.86;92.76;95380.50;4346546;32;20260;-53
2023/04/26 04:07:37;;;;;;;1.33;1.33;;;;;;;6.69;93.17;95380.03;4334733;32;20284;-52
2023/04/26 04:10:06;;;;;;;0.47;0.47;;;;;;;6.76;92.89;95381.34;4354023;32;20280;-55
2023/04/26 04:12:33;;;;;;;1.17;1.17;;;;;;;6.76;92.95;95376.06;4327480;32;20270;-54
2023/04/26 04:15:01;;;;;;;1.03;1.03;;;;;;;6.82;93.13;95375.00;4317884;32;20324;-56
2023/04/26 04:17:28;;;;;;;1.20;1.20;;;;;;;6.80;93.13;95378.97;4320403;32;20293;-54
2023/04/26 04:19:55;;;;;;;1.27;1.27;;;;;;;6.50;93.77;95387.69;4365106;32;20333;-56
2023/04/26 04:22:22;;;;;;;0.70;0.70;;;;;;;6.66;92.95;95381.34;4368736;32;20293;-54
2023/04/26 04:24:47;;;;;;;1.33;1.33;;;;;;;6.58;93.67;95383.75;4351316;32;20265;-55
2023/04/26 04:27:15;;;;;;;1.50;1.40;;;;;;;6.46;94.11;95387.44;4350013;32;20372;-55
2023/04/26 04:29:45;;;;;;;1.97;1.87;;;;;;;6.67;93.77;95388.19;4330681;32;20290;-56
2023/04/26 04:32:12;;;;;;;3.17;1.53;;;;;;;6.64;93.97;95386.12;4349672;32;20296;-57
2023/04/26 04:34:39;;;;;;;1.53;1.43;;;;;;;6.72;93.18;95393.47;4374986;32;20346;-55
2023/04/26 04:37:06;;;;;;;1.43;1.33;;;;;;;6.76;92.96;95391.88;4337657;32;20265;-57
2023/04/26 04:39:32;;;;;;;0.63;0.63;;;;;;;6.64;93.32;95393.22;4343267;32;20197;-55
2023/04/26 04:41:59;;;;;;;1.63;1.53;;;;;;;6.65;93.52;95392.94;4367057;32;20391;-56
2023/04/26 04:44:27;;;;;;;0.90;0.90;;;;;;;6.75;93.79;95406.13;4338324;32;20345;-55
2023/04/26 04:46:52;;;;;;;0.93;0.93;;;;;;;6.67;93.91;95406.66;4366248;32;20297;-57
2023/04/26 04:49:18;;;;;;;1.37;1.27;;;;;;;6.76;93.24;95405.06;4351191;32;20272;-56
2023/04/26 04:51:47;;;;;;;1.53;1.43;;;;;;;6.75;93.61;95411.38;4344878;32;20189;-55
2023/04/26 04:54:17;;;;;;;1.37;1.37;;;;;;;6.66;94.18;95402.44;4363969;32;20333;-56
2023/04/26 04:56:44;;;;;;;1.13;1.10;;;;;;;6.64;94.23;95409.06;4301138;32;20317;-55
2023/04/26 04:59:11;;;;;;;1.97;1.87;;;;;;;6.65;94.42;95416.66;4343668;32;20379;-54
2023/04/26 05:01:39;;;;;;;1.60;1.50;;;;;;;6.78;93.94;95412.72;4350585;32;20281;-55
2023/04/26 05:04:06;;;;;;;0.83;0.83;;;;;;;6.80;93.96;95416.66;4327800;32;20269;-57
2023/04/26 05:06:33;;;;;;;1.60;1.50;;;;;;;6.81;93.32;95412.97;4327274;32;20289;-53
2023/04/26 05:09:00;;;;;;;1.63;1.53;;;;;;;6.68;93.58;95421.41;4366852;32;20283;-57
2023/04/26 05:11:25;;;;;;;3.57;2.30;;;;;;;6.90;93.06;95424.53;4360031;32;20281;-56
2023/04/26 05:13:55;;;;;;;1.40;1.40;;;;;;;6.92;92.88;95426.13;4324276;32;20351;-57
2023/04/26 05:16:22;;;;;;;1.90;1.63;;;;;;;6.99;91.83;95430.06;4370999;32;20180;-55
2023/04/26 05:18:48;;;;;;;2.07;1.97;;;;;;;6.82;92.02;95433.00;4348028;32;20273;-56
2023/04/26 05:21:21;;;;;;;2.53;1.10;;;;;;;6.86;92.57;95434.03;4376513;32;20331;-57
2023/04/26 05:23:49;;;;;;;1.30;1.30;;;;;;;7.01;92.21;95435.06;4368954;32;20272;-54
2023/04/26 05:26:16;;;;;;;1.50;1.43;;;;;;;6.87;91.69;95442.72;4369733;32;20300;-56
2023/04/26 05:28:43;;;;;;;1.47;1.37;;;;;;;6.87;92.43;95438.25;4340958;32;20285;-54
2023/04/26 05:31:10;;;;;;;1.20;1.20;;;;;;;7.07;92.17;95436.63;4341544;32;20368;-55
2023/04/26 05:33:36;;;;;;;3.73;1.33;;;;;;;7.02;92.05;95441.94;4345792;32;20223;-55
2023/04/26 05:36:04;;;;;;;1.80;1.70;;;;;;;6.97;92.74;95440.09;4341672;32;20284;-55
2023/04/26 05:38:30;;;;;;;2.40;2.30;;;;;;;6.98;92.58;95440.88;4322578;32;20189;-56
2023/04/26 05:40:58;;;;;;;1.00;1.00;;;;;;;6.98;93.15;95443.50;4348455;32;20292;-56
2023/04/26 05:43:23;;;;;;;1.63;1.63;;;;;;;7.01;92.78;95445.63;4352247;32;20285;-56
2023/04/26 05:45:50;;;;;;;0.90;0.90;;;;;;;7.04;92.54;95445.88;4361460;32;20278;-61
2023/04/26 05:48:26;;;;;;;1.43;1.43;;;;;;;6.90;93.69;95447.47;4380321;32;20181;-60
2023/04/26 05:50:52;;;;;;;2.70;1.40;;;;;;;6.96;93.59;95456.97;4343626;32;20288;-56
2023/04/26 05:53:20;;;;;;;1.47;1.37;;;;;;;6.94;93.32;95445.88;4349094;32;20363;-54
2023/04/26 05:55:47;;;;;;;1.13;1.13;;;;;;;6.76;93.65;95451.72;4332490;32;20240;-55
2023/04/26 05:58:15;;;;;;;1.90;1.80;;;;;;;6.83;93.53;95449.63;4350363;32;20320;-55
2023/04/26 06:00:41;;;;;;;2.23;2.13;;;;;;;6.89;93.52;95454.59;4340660;32;20269;-55
2023/04/26 06:03:08;;;;;;;7.83;1.93;;;;;;;6.92;93.06;95448.00;4375866;32;20280;-57
2023/04/26 06:05:37;;;;;;;9.80;2.27;;;;;;;6.83;93.54;95454.88;4368157;32;20296;-57
2023/04/26 06:08:04;;;;;;;1.53;1.43;;;;;;;7.03;92.38;95451.41;4369270;32;20260;-57
2023/04/26 06:10:31;;;;;;;4.83;2.10;;;;;;;7.09;91.79;95458.25;4364902;32;20278;-55
2023/04/26 06:12:58;;;;;;;1.60;1.50;;;;;;;7.15;90.92;95462.47;4367313;32;20277;-55
2023/04/26 06:15:28;;;;;;;1.23;1.23;;;;;;;7.09;89.85;95469.59;4350542;32;20281;-56
2023/04/26 06:17:53;;;;;;;1.00;1.00;;;;;;;7.18;90.42;95464.56;4348143;32;20284;-56
2023/04/26 06:20:19;;;;;;;1.83;1.73;;;;;;;7.07;89.44;95470.91;4363281;32;20292;-55
2023/04/26 06:22:44;;;;;;;0.97;0.97;;;;;;;6.82;91.23;95475.19;4350664;32;20186;-54
2023/04/26 06:25:31;;;;;;;3.30;1.60;;;;;;;6.76;92.38;95470.19;4329610;32;20252;-59
2023/04/26 06:27:57;;;;;;;0.70;0.70;;;;;;;8.08;100.00;95465.25;4366288;32;20255;-59
2023/04/26 06:30:27;;;;;;;2.07;1.97;;;;;;;10.49;100.00;95468.56;4378241;32;20272;-59
2023/04/26 06:32:52;;;;;;;1.70;1.60;;;;;;;11.14;100.00;95457.94;4360348;32;20283;-59
2023/04/26 06:35:24;;;;;;;1.97;1.87;;;;;;;11.74;92.60;95465.84;4366144;32;20384;-60
2023/04/26 06:37:57;;;;;;;1.77;1.67;;;;;;;12.41;80.46;95466.84;4304902;32;20185;-59
2023/04/26 06:40:24;;;;;;;5.87;2.17;;;;;;;12.82;75.04;95471.19;4331148;32;20212;-59
2023/04/26 06:42:50;;;;;;;1.77;1.67;;;;;;;13.36;74.95;95464.78;4351449;32;20231;-58
2023/04/26 06:45:17;;;;;;;1.17;1.17;;;;;;;13.48;71.31;95466.87;4381505;32;20189;-59
2023/04/26 06:47:44;;;;;;;0.90;0.90;;;;;;;13.66;69.48;95476.53;4374005;32;20176;-60
2023/04/26 06:50:09;;;;;;;1.60;1.60;;;;;;;13.93;68.22;95470.16;4363954;32;20306;-59
2023/04/26 06:52:35;;;;;;;2.17;2.07;;;;;;;13.71;66.93;95461.19;4392445;32;20189;-60
2023/04/26 06:55:02;;;;;;;3.00;1.57;;;;;;;13.90;67.33;95465.47;4337239;32;20230;-59
2023/04/26 06:57:30;;;;;;;1.33;1.33;;;;;;;14.00;65.80;95467.81;4349399;32;20236;-59
2023/04/26 06:59:56;;;;;;;1.73;1.63;;;;;;;14.01;65.97;95477.41;4352419;32;20196;-58
2023/04/26 07:02:23;;;;;;;1.90;1.70;;;;;;;13.40;70.79;95482.53;4365912;32;20211;-57
2023/04/26 07:04:50;;;;;;;1.70;1.60;;;;;;;11.72;68.62;95482.09;4388446;32;20247;-59
2023/04/26 07:07:17;;;;;;;1.50;1.50;;;;;;;11.68;69.19;95484.53;4334955;32;20199;-53
2023/04/26 07:09:43;;;;;;;1.27;1.27;;;;;;;11.11;71.76;95485.09;4310311;32;20428;-53
2023/04/26 07:12:16;;;;;;;1.27;1.13;;;;;;;10.34;73.19;95482.84;4343828;32;20310;-58
2023/04/26 07:14:44;;;;;;;1.47;1.47;;;;;;;10.00;75.20;95475.84;4368898;32;20188;-55
2023/04/26 07:17:10;;;;;;;1.27;1.27;;;;;;;10.05;74.33;95472.34;4351532;32;23703;-55
2023/04/26 07:19:36;;;;;;;0.73;0.73;;;;;;;9.93;75.06;95477.28;4365188;32;20185;-57
2023/04/26 07:22:03;;;;;;;1.60;1.00;;;;;;;9.65;75.65;95482.38;4362046;32;20192;-56
2023/04/26 07:24:30;;;;;;;1.47;1.40;;;;;;;9.67;74.96;95479.47;4354284;32;20224;-58
2023/04/26 07:26:57;;;;;;;1.40;1.30;;;;;;;9.43;75.18;95479.47;4359032;32;20193;-60
2023/04/26 07:29:24;;;;;;;2.03;1.20;;;;;;;10.17;80.95;95478.03;4364565;32;20214;-59
2023/04/26 07:31:49;;;;;;;4.47;1.27;;;;;;;12.14;82.88;95475.66;4365858;32;20192;-61
2023/04/26 07:34:17;;;;;;;2.83;1.67;;;;;;;13.42;74.20;95471.56;4369864;32;20185;-60
2023/04/26 07:36:43;;;;;;;0.77;0.77;;;;;;;14.01;67.52;95472.06;4377047;32;20243;-60
2023/04/26 07:39:10;;;;;;;0.60;0.60;;;;;;;14.77;63.69;95467.09;4383687;32;20375;-60
2023/04/26 07:41:38;;;;;;;1.17;1.17;;;;;;;14.66;61.88;95463.97;4371574;32;20257;-61
2023/04/26 07:44:04;;;;;;;1.40;1.27;;;;;;;14.92;61.20;95471.97;4348894;32;20207;-61
2023/04/26 07:46:35;;;;;;;2.80;1.90;;;;;;;15.08;59.15;95465.03;4320225;32;20189;-60
2023/04/26 07:49:02;;;;;;;1.13;1.13;;;;;;;15.51;59.58;95466.78;4302738;32;20198;-60
2023/04/26 07:51:29;;;;;;;1.73;1.63;;;;;;;15.44;58.16;95467.28;4346864;32;20204;-57
2023/04/26 07:53:54;;;;;;;1.93;1.83;;;;;;;14.07;55.79;95460.94;4368699;32;20343;-54
2023/04/26 07:56:43;;;;;;;1.87;1.77;;;;;;;12.60;61.31;95471.97;4331406;32;20180;-56
2023/04/26 07:59:11;;;;;;;3.17;1.60;;;;;;;11.90;64.86;95480.41;4338940;32;20236;-59
2023/04/26 08:01:38;;;;;;;2.30;2.20;;;;;;;11.34;66.22;95471.66;4338446;32;20208;-56
2023/04/26 08:04:05;;;;;;;1.77;1.67;;;;;;;10.74;67.98;95472.69;4341869;32;20185;-57
2023/04/26 08:06:30;;;;;;;2.03;1.93;;;;;;;10.29;68.59;95475.75;4315136;32;20203;-56
2023/04/26 08:08:58;;;;;;;1.73;1.63;;;;;;;10.18;71.38;95469.00;4332234;32;20173;-56
2023/04/26 08:11:28;;;;;;;1.20;1.20;;;;;;;9.77;70.54;95470.62;4355773;32;20190;-56
2023/04/26 08:13:55;;;;;;;2.00;1.90;;;;;;;9.85;71.03;95478.69;4327403;32;20184;-56
2023/04/26 08:16:23;;;;;;;1.73;1.67;;;;;;;9.72;72.62;95470.66;4359491;32;20223;-56
2023/04/26 08:18:49;;;;;;;2.00;1.90;;;;;;;9.33;72.36;95473.50;4352243;32;20197;-57
2023/04/26 08:21:15;;;;;;;1.87;1.87;;;;;;;9.67;72.63;95468.88;4325214;32;20192;-56
2023/04/26 08:23:45;;;;;;;2.00;1.90;;;;;;;9.69;73.61;95468.59;4361154;32;20231;-55
2023/04/26 08:26:13;;;;;;;2.07;1.87;;;;;;;9.83;73.18;95470.25;4337246;32;20230;-57
2023/04/26 08:28:43;;;;;;;2.97;2.10;;;;;;;9.78;73.65;95465.00;4372473;32;20224;-57
2023/04/26 08:31:08;;;;;;;1.50;1.50;;;;;;;10.02;72.88;95469.47;4376250;32;20239;-56
2023/04/26 08:33:34;;;;;;;1.50;1.50;;;;;;;9.90;70.43;95470.69;4360184;32;20192;-58
2023/04/26 08:36:02;;;;;;;2.63;2.43;;;;;;;10.05;70.27;95469.69;4331972;32;20234;-58
2023/04/26 08:38:31;;;;;;;1.67;1.67;;;;;;;10.27;68.52;95464.66;4337679;32;20203;-55
2023/04/26 08:41:01;;;;;;;2.20;2.10;;;;;;;10.07;66.58;95469.41;4361388;32;20184;-54
2023/04/26 08:43:32;;;;;;;2.80;1.57;;;;;;;10.29;65.38;95465.16;4343458;32;20201;-52
2023/04/26 08:45:59;;;;;;;2.23;2.13;;;;;;;10.02;67.39;95467.63;4349204;32;20271;-57
2023/04/26 08:48:30;;;;;;;1.70;1.70;;;;;;;10.19;65.79;95467.94;4354640;32;20195;-55
2023/04/26 08:50:55;;;;;;;2.13;1.90;;;;;;;10.15;66.09;95468.78;4371029;32;20184;-59
2023/04/26 08:53:22;;;;;;;1.67;1.57;;;;;;;10.15;65.44;95469.56;4383241;32;20185;-57
2023/04/26 08:55:50;;;;;;;1.00;1.00;;;;;;;10.15;66.10;95464.28;4361292;32;20180;-55
2023/04/26 08:58:24;;;;;;;1.40;1.40;;;;;;;10.13;66.46;95469.06;4353297;32;20181;-57
2023/04/26 09:01:01;;;;;;;1.90;1.80;;;;;;;10.13;67.48;95474.37;4371525;32;20176;-60
2023/04/26 09:03:29;;;;;;;3.47;2.27;;;;;;;10.19;67.48;95470.59;4372910;32;20234;-57
2023/04/26 09:06:00;;;;;;;2.40;2.17;;;;;;;10.02;66.14;95470.25;4350167;32;20230;-56
2023/04/26 09:08:27;;;;;;;1.67;1.67;;;;;;;10.39;65.48;95463.44;4349989;32;20195;-57
2023/04/26 09:10:52;;;;;;;2.03;1.83;;;;;;;10.18;67.00;95460.25;4345859;32;20189;-60
2023/04/26 09:13:18;;;;;;;8.43;1.50;;;;;;;10.34;68.22;95464.28;4346801;32;20181;-58
2023/04/26 09:15:47;;;;;;;1.60;1.50;;;;;;;10.46;69.11;95471.81;4374498;32;20214;-57
2023/04/26 09:18:22;;;;;;;1.87;1.83;;;;;;;10.56;67.42;95480.41;4366620;32;20195;-57
2023/04/26 09:21:07;;;;;;;1.57;1.50;;;;;;;10.74;66.37;95470.06;4368937;32;20260;-57
2023/04/26 09:23:35;;;;;;;3.63;1.53;;;;;;;10.86;64.91;95459.75;4325647;32;20205;-57
2023/04/26 09:26:25;;;;;;;2.10;1.97;;;;;;;10.48;65.69;95465.13;4348333;32;20193;-58
2023/04/26 09:29:20;;;;;;;1.47;1.37;;;;;;;10.49;65.61;95457.97;4350734;32;20176;-58
2023/04/26 09:31:48;;;;;;;0.83;0.80;;;;;;;10.51;66.10;95466.44;4302314;32;20237;-58
2023/04/26 09:34:14;;;;;;;1.70;1.37;;;;;;;10.38;65.37;95462.66;4342148;32;20201;-57
2023/04/26 09:36:57;;;;;;;1.20;1.13;;;;;;;10.21;65.08;95467.66;4355943;32;20291;-58
2023/04/26 09:39:39;;;;;;;2.00;1.90;;;;;;;10.37;65.64;95460.28;4334526;32;20181;-55
2023/04/26 09:42:06;;;;;;;1.30;1.30;;;;;;;10.35;66.26;95465.09;4313955;32;20187;-57
2023/04/26 09:44:43;;;;;;;1.40;1.40;;;;;;;10.19;65.66;95454.69;4344851;32;20196;-58
2023/04/26 09:47:11;;;;;;;1.07;1.07;;;;;;;10.52;66.43;95458.19;4337731;32;20276;-57
2023/04/26 09:50:09;;;;;;;1.87;1.70;;;;;;;10.29;67.88;95456.41;4343282;32;20185;-57
2023/04/26 09:52:44;;;;;;;1.23;1.23;;;;;;;10.79;65.94;95462.00;4370634;32;20256;-58
2023/04/26 09:55:10;;;;;;;12.63;1.93;;;;;;;10.77;63.22;95458.84;4354923;32;20319;-58
2023/04/26 09:57:43;;;;;;;1.20;1.20;;;;;;;10.73;62.56;95461.31;4338371;32;20216;-58
2023/04/26 10:00:14;;;;;;;1.00;1.00;;;;;;;10.80;62.24;95461.72;4351745;32;20307;-58
2023/04/26 10:03:01;;;;;;;1.67;1.00;;;;;;;11.10;61.49;95456.97;4332515;32;20255;-58
2023/04/26 10:05:27;;;;;;;1.17;1.07;;;;;;;11.04;61.62;95464.22;4321766;32;20224;-58
2023/04/26 10:07:53;;;;;;;1.13;1.13;;;;;;;10.97;62.99;95469.94;4358673;32;20184;-58
2023/04/26 10:10:20;;;;;;;0.93;0.67;;;;;;;10.90;62.36;95461.53;4358170;32;20260;-57
2023/04/26 10:12:47;;;;;;;1.23;1.23;;;;;;;10.48;64.16;95467.78;4350692;32;20254;-58
2023/04/26 10:15:15;;;;;;;1.50;1.40;;;;;;;10.60;63.29;95467.31;4376706;32;20196;-58
2023/04/26 10:17:41;;;;;;;3.70;0.93;;;;;;;10.82;64.59;95456.09;4327120;32;20313;-58
2023/04/26 10:20:19;;;;;;;1.80;1.00;;;;;;;10.78;64.30;95452.47;4358391;32;20228;-57
2023/04/26 10:22:52;;;;;;;0.80;0.80;;;;;;;10.74;63.27;95448.81;4327053;32;20250;-58
2023/04/26 10:25:18;;;;;;;1.30;0.83;;;;;;;10.82;61.99;95448.94;4324858;32;20241;-58
2023/04/26 10:27:47;;;;;;;0.70;0.70;;;;;;;10.79;61.45;95446.88;4303955;32;20286;-58
2023/04/26 10:30:16;;;;;;;0.87;0.87;;;;;;;11.01;59.88;95439.03;4323693;32;20307;-58
2023/04/26 10:32:53;;;;;;;3.53;0.80;;;;;;;11.11;58.68;95437.28;4359027;32;20440;-58
2023/04/26 10:35:20;;;;;;;1.30;1.20;;;;;;;11.32;60.17;95433.97;4348065;32;20184;-58
2023/04/26 10:38:06;;;;;;;0.40;0.40;;;;;;;11.33;60.65;95440.06;4309737;32;20197;-58
2023/04/26 10:40:35;;;;;;;0.93;0.93;;;;;;;11.58;59.88;95436.94;4331813;32;20209;-58
2023/04/26 10:43:21;;;;;;;0.60;0.60;;;;;;;11.33;60.09;95440.84;4316064;32;20258;-58
2023/04/26 10:46:22;;;;;;;0.70;0.70;;;;;;;11.48;57.73;95436.31;4354335;32;20199;-58
2023/04/26 10:48:51;;;;;;;0.60;0.60;;;;;;;11.53;56.54;95429.06;4345966;32;20223;-58
2023/04/26 10:51:17;;;;;;;0.93;0.93;;;;;;;11.36;55.29;95420.87;4325488;32;20203;-58
2023/04/26 10:53:55;;;;;;;1.07;1.07;;;;;;;11.19;58.28;95424.12;4328197;32;20189;-58
2023/04/26 10:56:23;;;;;;;0.90;0.90;;;;;;;11.43;60.29;95415.19;4311922;32;20271;-58
2023/04/26 10:59:19;;;;;;;8.73;1.10;;;;;;;11.38;55.20;95415.28;4353571;32;20240;-58
2023/04/26 11:01:46;;;;;;;0.50;0.50;;;;;;;11.37;57.46;95409.19;4344459;32;20219;-58
2023/04/26 11:04:15;;;;;;;0.67;0.67;;;;;;;11.62;57.53;95411.34;4376675;32;22431;-58
2023/04/26 11:07:00;;;;;;;1.90;1.43;;;;;;;11.79;57.83;95402.78;4337245;32;20348;-58
2023/04/26 11:09:48;;;;;;;0.80;0.80;;;;;;;11.51;56.89;95398.53;4322220;32;20248;-58
2023/04/26 11:12:16;;;;;;;0.70;0.70;;;;;;;11.52;58.19;95387.63;4364218;32;20260;-58
2023/04/26 11:14:46;;;;;;;1.00;1.00;;;;;;;11.51;57.35;95387.91;4333411;32;20207;-58
2023/04/26 11:17:13;;;;;;;0.70;0.70;;;;;;;11.68;57.94;95388.09;4368175;32;20200;-58
2023/04/26 11:19:41;;;;;;;1.57;1.47;;;;;;;11.82;57.59;95386.25;4309673;32;20260;-58
2023/04/26 11:22:11;;;;;;;0.90;0.90;;;;;;;11.78;55.54;95387.13;4351292;32;20204;-59
2023/04/26 11:24:39;;;;;;;1.00;0.90;;;;;;;11.96;55.49;95388.84;4357992;32;20251;-58
2023/04/26 11:27:14;;;;;;;0.47;0.47;;;;;;;11.96;55.16;95388.84;4349763;32;20297;-58
2023/04/26 11:29:40;;;;;;;0.87;0.87;;;;;;;12.12;56.51;95381.31;4337055;32;20366;-58
2023/04/26 11:32:09;;;;;;;1.43;0.90;;;;;;;12.16;53.18;95375.09;4323480;32;20197;-58
2023/04/26 11:34:38;;;;;;;1.80;1.00;;;;;;;12.16;54.13;95371.66;4362660;32;20241;-58
2023/04/26 11:37:06;;;;;;;1.17;1.17;;;;;;;12.22;54.52;95378.44;4336783;32;20267;-58
2023/04/26 11:39:32;;;;;;;1.10;1.10;;;;;;;12.14;53.18;95371.16;4330041;32;20192;-59
2023/04/26 11:42:10;;;;;;;0.53;0.53;;;;;;;12.47;51.41;95366.41;4374907;32;20288;-58
2023/04/26 11:44:37;;;;;;;14.43;1.13;;;;;;;12.17;52.21;95371.34;4342120;32;20193;-58
2023/04/26 11:47:06;;;;;;;0.77;0.77;;;;;;;12.19;52.00;95382.47;4343828;32;20211;-57